PWSweather.com
Personal Weather Stations
Station Observations
SD92115WX
El Cerrito Stoneybluff, San Diego, CA 92115

El Cerrito StoneybluffSan Diego, CA 92115

Lat: 32.754096, Lon: -117.066705

Elevation: 420

Station Type: Davis Vantage Vue

http://stoneybluff.com

High Low Average
Temperature 72.0°F22.2°C 43.9°F6.6°C 55.7°F13.2°C
Dew Point 53.4°F11.9°C 40.1°F4.5°C 47.5°F8.6°C
Winds 5.1 mph 8.2 kmh Calm Calm 1.0 mph S1.6 kmh S
Wind Gusts 8.5 mph13.7 kmh -- 2.0 mph3.2 kmh
Humidity 94% 35% 77%
Pressure 30.13 in1020.3 mb 30.01 in1016.3 mb -
Precipitation 0.00 in0.0 mm - -
Hour Temp Dew Point Humidity Winds Wind Gusts Pressure Precip Precip Rate Daily Precip Total
12:02 AM 48.9°F9.4°C 47.3°F8.5°C 94% Calm Calm -- 30.09 in1019.0 mb 0.00 in0.0 mm 0.00 in0.0 mm 0.00 in0.0 mm
12:07 AM 48.7°F9.3°C 47.1°F8.4°C 94% Calm Calm -- 30.09 in1019.0 mb 0.00 in0.0 mm 0.00 in0.0 mm 0.00 in0.0 mm
12:12 AM 48.7°F9.3°C 47.1°F8.4°C 94% Calm Calm -- 30.09 in1019.0 mb 0.00 in0.0 mm 0.00 in0.0 mm 0.00 in0.0 mm
12:17 AM 48.9°F9.4°C 47.3°F8.5°C 94% Calm Calm -- 30.09 in1019.0 mb 0.00 in0.0 mm 0.00 in0.0 mm 0.00 in0.0 mm
12:22 AM 48.7°F9.3°C 47.1°F8.4°C 94% Calm Calm -- 30.09 in1019.0 mb 0.00 in0.0 mm 0.00 in0.0 mm 0.00 in0.0 mm
12:27 AM 48.7°F9.3°C 47.1°F8.4°C 94% Calm Calm -- 30.08 in1018.6 mb 0.00 in0.0 mm 0.00 in0.0 mm 0.00 in0.0 mm
12:32 AM 48.6°F9.2°C 46.6°F8.1°C 93% Calm Calm -- 30.08 in1018.6 mb 0.00 in0.0 mm 0.00 in0.0 mm 0.00 in0.0 mm
12:37 AM 47.8°F8.8°C 45.9°F7.7°C 93% Calm Calm -- 30.09 in1019.0 mb 0.00 in0.0 mm 0.00 in0.0 mm 0.00 in0.0 mm
12:42 AM 47.5°F8.6°C 45.5°F7.5°C 93% Calm Calm -- 30.09 in1019.0 mb 0.00 in0.0 mm 0.00 in0.0 mm 0.00 in0.0 mm
12:47 AM 47.5°F8.6°C 45.9°F7.7°C 94% Calm Calm -- 30.09 in1019.0 mb 0.00 in0.0 mm 0.00 in0.0 mm 0.00 in0.0 mm
12:52 AM 47.5°F8.6°C 45.9°F7.7°C 94% Calm Calm -- 30.08 in1018.6 mb 0.00 in0.0 mm 0.00 in0.0 mm 0.00 in0.0 mm
12:57 AM 47.3°F8.5°C 45.3°F7.4°C 93% Calm Calm -- 30.08 in1018.6 mb 0.00 in0.0 mm 0.00 in0.0 mm 0.00 in0.0 mm
01:02 AM 47.3°F8.5°C 45.7°F7.6°C 94% Calm Calm -- 30.08 in1018.6 mb 0.00 in0.0 mm 0.00 in0.0 mm 0.00 in0.0 mm
01:07 AM 47.1°F8.4°C 45.5°F7.5°C 94% Calm Calm -- 30.08 in1018.6 mb 0.00 in0.0 mm 0.00 in0.0 mm 0.00 in0.0 mm
01:12 AM 46.9°F8.3°C 45.3°F7.4°C 94% Calm Calm -- 30.08 in1018.6 mb 0.00 in0.0 mm 0.00 in0.0 mm 0.00 in0.0 mm
01:17 AM 46.9°F8.3°C 45.3°F7.4°C 94% Calm Calm -- 30.08 in1018.6 mb 0.00 in0.0 mm 0.00 in0.0 mm 0.00 in0.0 mm
01:22 AM 46.9°F8.3°C 45.3°F7.4°C 94% Calm Calm -- 30.09 in1019.0 mb 0.00 in0.0 mm 0.00 in0.0 mm 0.00 in0.0 mm
01:27 AM 46.9°F8.3°C 45.3°F7.4°C 94% Calm Calm -- 30.09 in1019.0 mb 0.00 in0.0 mm 0.00 in0.0 mm 0.00 in0.0 mm
01:32 AM 47.1°F8.4°C 45.5°F7.5°C 94% Calm Calm -- 30.09 in1019.0 mb 0.00 in0.0 mm 0.00 in0.0 mm 0.00 in0.0 mm
01:37 AM 46.8°F8.2°C 44.8°F7.1°C 93% Calm Calm -- 30.09 in1019.0 mb 0.00 in0.0 mm 0.00 in0.0 mm 0.00 in0.0 mm
01:42 AM 46.8°F8.2°C 44.8°F7.1°C 93% Calm Calm -- 30.08 in1018.6 mb 0.00 in0.0 mm 0.00 in0.0 mm 0.00 in0.0 mm
01:47 AM 46.6°F8.1°C 45.0°F7.2°C 94% Calm Calm -- 30.09 in1019.0 mb 0.00 in0.0 mm 0.00 in0.0 mm 0.00 in0.0 mm
01:52 AM 46.6°F8.1°C 44.6°F7.0°C 93% Calm Calm -- 30.09 in1019.0 mb 0.00 in0.0 mm 0.00 in0.0 mm 0.00 in0.0 mm
01:57 AM 46.2°F7.9°C 44.2°F6.8°C 93% Calm Calm -- 30.08 in1018.6 mb 0.00 in0.0 mm 0.00 in0.0 mm 0.00 in0.0 mm
02:02 AM 46.0°F7.8°C 44.1°F6.7°C 93% 0.2 mph ENE0.3 kmh ENE 1.1 mph1.8 kmh 30.09 in1019.0 mb 0.00 in0.0 mm 0.00 in0.0 mm 0.00 in0.0 mm
02:07 AM 46.0°F7.8°C 44.1°F6.7°C 93% Calm Calm 1.1 mph1.8 kmh 30.09 in1019.0 mb 0.00 in0.0 mm 0.00 in0.0 mm 0.00 in0.0 mm
02:12 AM 45.9°F7.7°C 43.9°F6.6°C 93% Calm Calm -- 30.09 in1019.0 mb 0.00 in0.0 mm 0.00 in0.0 mm 0.00 in0.0 mm
02:17 AM 45.9°F7.7°C 43.9°F6.6°C 93% Calm Calm -- 30.09 in1019.0 mb 0.00 in0.0 mm 0.00 in0.0 mm 0.00 in0.0 mm
02:22 AM 46.0°F7.8°C 44.1°F6.7°C 93% Calm Calm -- 30.09 in1019.0 mb 0.00 in0.0 mm 0.00 in0.0 mm 0.00 in0.0 mm
02:27 AM 46.0°F7.8°C 44.1°F6.7°C 93% Calm Calm -- 30.09 in1019.0 mb 0.00 in0.0 mm 0.00 in0.0 mm 0.00 in0.0 mm
02:32 AM 46.0°F7.8°C 44.1°F6.7°C 93% Calm Calm -- 30.09 in1019.0 mb 0.00 in0.0 mm 0.00 in0.0 mm 0.00 in0.0 mm
02:37 AM 46.0°F7.8°C 44.1°F6.7°C 93% Calm Calm -- 30.09 in1019.0 mb 0.00 in0.0 mm 0.00 in0.0 mm 0.00 in0.0 mm
02:42 AM 45.9°F7.7°C 43.9°F6.6°C 93% Calm Calm -- 30.09 in1019.0 mb 0.00 in0.0 mm 0.00 in0.0 mm 0.00 in0.0 mm
02:47 AM 45.9°F7.7°C 43.9°F6.6°C 93% Calm Calm -- 30.08 in1018.6 mb 0.00 in0.0 mm 0.00 in0.0 mm 0.00 in0.0 mm
02:52 AM 45.9°F7.7°C 43.9°F6.6°C 93% Calm Calm -- 30.08 in1018.6 mb 0.00 in0.0 mm 0.00 in0.0 mm 0.00 in0.0 mm
02:57 AM 45.9°F7.7°C 43.9°F6.6°C 93% Calm Calm -- 30.08 in1018.6 mb 0.00 in0.0 mm 0.00 in0.0 mm 0.00 in0.0 mm
03:02 AM 45.7°F7.6°C 43.5°F6.4°C 92% Calm Calm -- 30.09 in1019.0 mb 0.00 in0.0 mm 0.00 in0.0 mm 0.00 in0.0 mm
03:07 AM 45.7°F7.6°C 43.5°F6.4°C 92% Calm Calm -- 30.09 in1019.0 mb 0.00 in0.0 mm 0.00 in0.0 mm 0.00 in0.0 mm
03:12 AM 45.3°F7.4°C 43.2°F6.2°C 92% Calm Calm -- 30.09 in1019.0 mb 0.00 in0.0 mm 0.00 in0.0 mm 0.00 in0.0 mm
03:17 AM 45.3°F7.4°C 43.2°F6.2°C 92% Calm Calm -- 30.09 in1019.0 mb 0.00 in0.0 mm 0.00 in0.0 mm 0.00 in0.0 mm
03:22 AM 45.3°F7.4°C 43.2°F6.2°C 92% Calm Calm -- 30.09 in1019.0 mb 0.00 in0.0 mm 0.00 in0.0 mm 0.00 in0.0 mm
03:27 AM 45.3°F7.4°C 43.2°F6.2°C 92% Calm Calm -- 30.09 in1019.0 mb 0.00 in0.0 mm 0.00 in0.0 mm 0.00 in0.0 mm
03:32 AM 45.1°F7.3°C 43.0°F6.1°C 92% Calm Calm -- 30.09 in1019.0 mb 0.00 in0.0 mm 0.00 in0.0 mm 0.00 in0.0 mm
03:37 AM 45.1°F7.3°C 43.0°F6.1°C 92% Calm Calm -- 30.09 in1019.0 mb 0.00 in0.0 mm 0.00 in0.0 mm 0.00 in0.0 mm
03:42 AM 45.1°F7.3°C 43.0°F6.1°C 92% Calm Calm -- 30.09 in1019.0 mb 0.00 in0.0 mm 0.00 in0.0 mm 0.00 in0.0 mm
03:47 AM 45.1°F7.3°C 43.0°F6.1°C 92% Calm Calm -- 30.09 in1019.0 mb 0.00 in0.0 mm 0.00 in0.0 mm 0.00 in0.0 mm
03:52 AM 45.3°F7.4°C 43.2°F6.2°C 92% Calm Calm -- 30.09 in1019.0 mb 0.00 in0.0 mm 0.00 in0.0 mm 0.00 in0.0 mm
03:57 AM 45.3°F7.4°C 43.2°F6.2°C 92% Calm Calm -- 30.09 in1019.0 mb 0.00 in0.0 mm 0.00 in0.0 mm 0.00 in0.0 mm
04:02 AM 45.1°F7.3°C 42.6°F5.9°C 91% Calm Calm -- 30.09 in1019.0 mb 0.00 in0.0 mm 0.00 in0.0 mm 0.00 in0.0 mm
04:07 AM 45.0°F7.2°C 42.4°F5.8°C 91% Calm Calm -- 30.08 in1018.6 mb 0.00 in0.0 mm 0.00 in0.0 mm 0.00 in0.0 mm
04:12 AM 44.8°F7.1°C 42.3°F5.7°C 91% Calm Calm -- 30.08 in1018.6 mb 0.00 in0.0 mm 0.00 in0.0 mm 0.00 in0.0 mm
04:17 AM 44.6°F7.0°C 42.1°F5.6°C 91% Calm Calm -- 30.08 in1018.6 mb 0.00 in0.0 mm 0.00 in0.0 mm 0.00 in0.0 mm
04:22 AM 44.2°F6.8°C 41.7°F5.4°C 91% Calm Calm -- 30.08 in1018.6 mb 0.00 in0.0 mm 0.00 in0.0 mm 0.00 in0.0 mm
04:27 AM 44.4°F6.9°C 41.9°F5.5°C 91% Calm Calm -- 30.08 in1018.6 mb 0.00 in0.0 mm 0.00 in0.0 mm 0.00 in0.0 mm
04:32 AM 44.2°F6.8°C 41.7°F5.4°C 91% Calm Calm -- 30.08 in1018.6 mb 0.00 in0.0 mm 0.00 in0.0 mm 0.00 in0.0 mm
04:37 AM 44.1°F6.7°C 41.5°F5.3°C 91% Calm Calm -- 30.08 in1018.6 mb 0.00 in0.0 mm 0.00 in0.0 mm 0.00 in0.0 mm
04:42 AM 43.9°F6.6°C 41.4°F5.2°C 91% Calm Calm -- 30.07 in1018.3 mb 0.00 in0.0 mm 0.00 in0.0 mm 0.00 in0.0 mm
04:47 AM 44.1°F6.7°C 41.5°F5.3°C 91% Calm Calm -- 30.07 in1018.3 mb 0.00 in0.0 mm 0.00 in0.0 mm 0.00 in0.0 mm
04:52 AM 44.1°F6.7°C 41.5°F5.3°C 91% Calm Calm -- 30.07 in1018.3 mb 0.00 in0.0 mm 0.00 in0.0 mm 0.00 in0.0 mm
04:57 AM 44.4°F6.9°C 41.9°F5.5°C 91% Calm Calm -- 30.07 in1018.3 mb 0.00 in0.0 mm 0.00 in0.0 mm 0.00 in0.0 mm
05:02 AM 44.6°F7.0°C 41.9°F5.5°C 90% Calm Calm -- 30.07 in1018.3 mb 0.00 in0.0 mm 0.00 in0.0 mm 0.00 in0.0 mm
05:07 AM 44.8°F7.1°C 41.7°F5.4°C 89% Calm Calm -- 30.07 in1018.3 mb 0.00 in0.0 mm 0.00 in0.0 mm 0.00 in0.0 mm
05:12 AM 44.6°F7.0°C 41.2°F5.1°C 88% Calm Calm -- 30.08 in1018.6 mb 0.00 in0.0 mm 0.00 in0.0 mm 0.00 in0.0 mm
05:17 AM 44.4°F6.9°C 41.2°F5.1°C 88% Calm Calm -- 30.07 in1018.3 mb 0.00 in0.0 mm 0.00 in0.0 mm 0.00 in0.0 mm
05:22 AM 44.4°F6.9°C 41.2°F5.1°C 88% Calm Calm -- 30.08 in1018.6 mb 0.00 in0.0 mm 0.00 in0.0 mm 0.00 in0.0 mm
05:27 AM 44.4°F6.9°C 41.2°F5.1°C 88% Calm Calm -- 30.07 in1018.3 mb 0.00 in0.0 mm 0.00 in0.0 mm 0.00 in0.0 mm
05:32 AM 44.8°F7.1°C 41.4°F5.2°C 88% Calm Calm -- 30.07 in1018.3 mb 0.00 in0.0 mm 0.00 in0.0 mm 0.00 in0.0 mm
05:37 AM 44.8°F7.1°C 41.2°F5.1°C 87% Calm Calm -- 30.08 in1018.6 mb 0.00 in0.0 mm 0.00 in0.0 mm 0.00 in0.0 mm
05:42 AM 44.8°F7.1°C 41.2°F5.1°C 87% Calm Calm -- 30.08 in1018.6 mb 0.00 in0.0 mm 0.00 in0.0 mm 0.00 in0.0 mm
05:47 AM 45.0°F7.2°C 41.4°F5.2°C 87% Calm Calm -- 30.08 in1018.6 mb 0.00 in0.0 mm 0.00 in0.0 mm 0.00 in0.0 mm
05:52 AM 45.0°F7.2°C 41.4°F5.2°C 87% Calm Calm -- 30.08 in1018.6 mb 0.00 in0.0 mm 0.00 in0.0 mm 0.00 in0.0 mm
05:57 AM 45.1°F7.3°C 41.2°F5.1°C 86% Calm Calm -- 30.08 in1018.6 mb 0.00 in0.0 mm 0.00 in0.0 mm 0.00 in0.0 mm
06:02 AM 45.1°F7.3°C 41.2°F5.1°C 86% Calm Calm -- 30.08 in1018.6 mb 0.00 in0.0 mm 0.00 in0.0 mm 0.00 in0.0 mm
06:07 AM 45.3°F7.4°C 41.0°F5.0°C 85% Calm Calm -- 30.08 in1018.6 mb 0.00 in0.0 mm 0.00 in0.0 mm 0.00 in0.0 mm
06:12 AM 45.1°F7.3°C 40.8°F4.9°C 85% Calm Calm -- 30.08 in1018.6 mb 0.00 in0.0 mm 0.00 in0.0 mm 0.00 in0.0 mm
06:17 AM 45.1°F7.3°C 40.6°F4.8°C 84% Calm Calm -- 30.08 in1018.6 mb 0.00 in0.0 mm 0.00 in0.0 mm 0.00 in0.0 mm
06:22 AM 45.0°F7.2°C 40.5°F4.7°C 84% Calm Calm -- 30.08 in1018.6 mb 0.00 in0.0 mm 0.00 in0.0 mm 0.00 in0.0 mm
06:27 AM 45.0°F7.2°C 40.6°F4.8°C 85% Calm Calm -- 30.08 in1018.6 mb 0.00 in0.0 mm 0.00 in0.0 mm 0.00 in0.0 mm
06:32 AM 45.0°F7.2°C 40.6°F4.8°C 85% Calm Calm -- 30.09 in1019.0 mb 0.00 in0.0 mm 0.00 in0.0 mm 0.00 in0.0 mm
06:37 AM 45.0°F7.2°C 40.5°F4.7°C 84% Calm Calm -- 30.09 in1019.0 mb 0.00 in0.0 mm 0.00 in0.0 mm 0.00 in0.0 mm
06:42 AM 44.8°F7.1°C 40.5°F4.7°C 85% Calm Calm -- 30.09 in1019.0 mb 0.00 in0.0 mm 0.00 in0.0 mm 0.00 in0.0 mm
06:47 AM 44.4°F6.9°C 40.3°F4.6°C 85% Calm Calm -- 30.09 in1019.0 mb 0.00 in0.0 mm 0.00 in0.0 mm 0.00 in0.0 mm
06:52 AM 44.2°F6.8°C 40.1°F4.5°C 85% Calm Calm -- 30.09 in1019.0 mb 0.00 in0.0 mm 0.00 in0.0 mm 0.00 in0.0 mm
06:57 AM 44.1°F6.7°C 40.1°F4.5°C 86% Calm Calm -- 30.09 in1019.0 mb 0.00 in0.0 mm 0.00 in0.0 mm 0.00 in0.0 mm
07:02 AM 44.1°F6.7°C 40.1°F4.5°C 86% Calm Calm -- 30.10 in1019.3 mb 0.00 in0.0 mm 0.00 in0.0 mm 0.00 in0.0 mm
07:07 AM 44.1°F6.7°C 40.1°F4.5°C 86% Calm Calm -- 30.10 in1019.3 mb 0.00 in0.0 mm 0.00 in0.0 mm 0.00 in0.0 mm
07:12 AM 44.1°F6.7°C 40.1°F4.5°C 86% Calm Calm -- 30.10 in1019.3 mb 0.00 in0.0 mm 0.00 in0.0 mm 0.00 in0.0 mm
07:17 AM 44.1°F6.7°C 40.1°F4.5°C 86% Calm Calm -- 30.10 in1019.3 mb 0.00 in0.0 mm 0.00 in0.0 mm 0.00 in0.0 mm
07:22 AM 44.2°F6.8°C 40.6°F4.8°C 87% Calm Calm -- 30.10 in1019.3 mb 0.00 in0.0 mm 0.00 in0.0 mm 0.00 in0.0 mm
07:27 AM 44.2°F6.8°C 40.6°F4.8°C 87% Calm Calm -- 30.11 in1019.6 mb 0.00 in0.0 mm 0.00 in0.0 mm 0.00 in0.0 mm
07:32 AM 44.2°F6.8°C 40.6°F4.8°C 87% Calm Calm -- 30.11 in1019.6 mb 0.00 in0.0 mm 0.00 in0.0 mm 0.00 in0.0 mm
07:37 AM 44.8°F7.1°C 41.2°F5.1°C 87% Calm Calm -- 30.11 in1019.6 mb 0.00 in0.0 mm 0.00 in0.0 mm 0.00 in0.0 mm
07:42 AM 45.0°F7.2°C 41.4°F5.2°C 87% Calm Calm -- 30.11 in1019.6 mb 0.00 in0.0 mm 0.00 in0.0 mm 0.00 in0.0 mm
07:47 AM 45.0°F7.2°C 41.4°F5.2°C 87% Calm Calm -- 30.11 in1019.6 mb 0.00 in0.0 mm 0.00 in0.0 mm 0.00 in0.0 mm
07:52 AM 45.7°F7.6°C 42.1°F5.6°C 87% Calm Calm -- 30.11 in1019.6 mb 0.00 in0.0 mm 0.00 in0.0 mm 0.00 in0.0 mm
07:57 AM 46.8°F8.2°C 43.3°F6.3°C 88% Calm Calm -- 30.11 in1019.6 mb 0.00 in0.0 mm 0.00 in0.0 mm 0.00 in0.0 mm
08:02 AM 48.0°F8.9°C 44.4°F6.9°C 87% Calm Calm -- 30.11 in1019.6 mb 0.00 in0.0 mm 0.00 in0.0 mm 0.00 in0.0 mm
08:07 AM 48.9°F9.4°C 44.6°F7.0°C 85% Calm Calm -- 30.11 in1019.6 mb 0.00 in0.0 mm 0.00 in0.0 mm 0.00 in0.0 mm
08:12 AM 49.3°F9.6°C 44.4°F6.9°C 83% Calm Calm -- 30.11 in1019.6 mb 0.00 in0.0 mm 0.00 in0.0 mm 0.00 in0.0 mm
08:17 AM 50.0°F10.0°C 44.8°F7.1°C 82% Calm Calm -- 30.12 in1020.0 mb 0.00 in0.0 mm 0.00 in0.0 mm 0.00 in0.0 mm
08:22 AM 50.7°F10.4°C 44.4°F6.9°C 79% Calm Calm -- 30.12 in1020.0 mb 0.00 in0.0 mm 0.00 in0.0 mm 0.00 in0.0 mm
08:27 AM 51.4°F10.8°C 44.4°F6.9°C 77% Calm Calm -- 30.12 in1020.0 mb 0.00 in0.0 mm 0.00 in0.0 mm 0.00 in0.0 mm
08:32 AM 52.2°F11.2°C 44.8°F7.1°C 76% Calm Calm -- 30.12 in1020.0 mb 0.00 in0.0 mm 0.00 in0.0 mm 0.00 in0.0 mm
08:37 AM 53.2°F11.8°C 45.5°F7.5°C 75% Calm Calm -- 30.12 in1020.0 mb 0.00 in0.0 mm 0.00 in0.0 mm 0.00 in0.0 mm
08:42 AM 53.8°F12.1°C 45.3°F7.4°C 73% Calm Calm -- 30.12 in1020.0 mb 0.00 in0.0 mm 0.00 in0.0 mm 0.00 in0.0 mm
08:47 AM 54.1°F12.3°C 45.3°F7.4°C 72% Calm Calm 1.1 mph1.8 kmh 30.12 in1020.0 mb 0.00 in0.0 mm 0.00 in0.0 mm 0.00 in0.0 mm
08:52 AM 55.0°F12.8°C 45.9°F7.7°C 71% Calm Calm 1.1 mph1.8 kmh 30.12 in1020.0 mb 0.00 in0.0 mm 0.00 in0.0 mm 0.00 in0.0 mm
08:57 AM 55.8°F13.2°C 45.7°F7.6°C 69% Calm Calm 1.1 mph1.8 kmh 30.12 in1020.0 mb 0.00 in0.0 mm 0.00 in0.0 mm 0.00 in0.0 mm
09:02 AM 56.3°F13.5°C 45.9°F7.7°C 68% Calm Calm -- 30.12 in1020.0 mb 0.00 in0.0 mm 0.00 in0.0 mm 0.00 in0.0 mm
09:07 AM 56.7°F13.7°C 44.2°F6.8°C 63% Calm Calm 1.1 mph1.8 kmh 30.12 in1020.0 mb 0.00 in0.0 mm 0.00 in0.0 mm 0.00 in0.0 mm
09:12 AM 57.0°F13.9°C 45.0°F7.2°C 64% Calm Calm -- 30.12 in1020.0 mb 0.00 in0.0 mm 0.00 in0.0 mm 0.00 in0.0 mm
09:17 AM 57.2°F14.0°C 43.9°F6.6°C 61% Calm Calm 1.1 mph1.8 kmh 30.13 in1020.3 mb 0.00 in0.0 mm 0.00 in0.0 mm 0.00 in0.0 mm
09:22 AM 57.4°F14.1°C 44.1°F6.7°C 61% Calm Calm -- 30.13 in1020.3 mb 0.00 in0.0 mm 0.00 in0.0 mm 0.00 in0.0 mm
09:27 AM 57.9°F14.4°C 44.1°F6.7°C 60% 0.4 mph WNW0.6 kmh WNW 2.0 mph3.2 kmh 30.13 in1020.3 mb 0.00 in0.0 mm 0.00 in0.0 mm 0.00 in0.0 mm
09:32 AM 58.3°F14.6°C 44.1°F6.7°C 59% Calm Calm 1.1 mph1.8 kmh 30.13 in1020.3 mb 0.00 in0.0 mm 0.00 in0.0 mm 0.00 in0.0 mm
09:37 AM 59.2°F15.1°C 44.4°F6.9°C 58% 0.4 mph W0.6 kmh W 2.0 mph3.2 kmh 30.12 in1020.0 mb 0.00 in0.0 mm 0.00 in0.0 mm 0.00 in0.0 mm
09:42 AM 59.5°F15.3°C 45.1°F7.3°C 59% 0.7 mph WSW1.1 kmh WSW 2.0 mph3.2 kmh 30.12 in1020.0 mb 0.00 in0.0 mm 0.00 in0.0 mm 0.00 in0.0 mm
09:47 AM 59.7°F15.4°C 45.3°F7.4°C 59% Calm Calm 2.0 mph3.2 kmh 30.12 in1020.0 mb 0.00 in0.0 mm 0.00 in0.0 mm 0.00 in0.0 mm
09:52 AM 60.3°F15.7°C 46.4°F8.0°C 60% 0.4 mph NNW0.6 kmh NNW 3.1 mph5.0 kmh 30.12 in1020.0 mb 0.00 in0.0 mm 0.00 in0.0 mm 0.00 in0.0 mm
09:57 AM 60.6°F15.9°C 47.1°F8.4°C 61% 1.6 mph NW2.6 kmh NW 4.3 mph6.9 kmh 30.12 in1020.0 mb 0.00 in0.0 mm 0.00 in0.0 mm 0.00 in0.0 mm
10:02 AM 61.0°F16.1°C 47.5°F8.6°C 61% 0.2 mph NW0.3 kmh NW 2.0 mph3.2 kmh 30.12 in1020.0 mb 0.00 in0.0 mm 0.00 in0.0 mm 0.00 in0.0 mm
10:07 AM 61.5°F16.4°C 46.6°F8.1°C 58% 0.7 mph NNE1.1 kmh NNE 2.0 mph3.2 kmh 30.12 in1020.0 mb 0.00 in0.0 mm 0.00 in0.0 mm 0.00 in0.0 mm
10:12 AM 62.1°F16.7°C 46.6°F8.1°C 57% 0.9 mph NW1.4 kmh NW 2.0 mph3.2 kmh 30.12 in1020.0 mb 0.00 in0.0 mm 0.00 in0.0 mm 0.00 in0.0 mm
10:17 AM 61.7°F16.5°C 46.4°F8.0°C 57% 1.1 mph NNW1.8 kmh NNW 3.1 mph5.0 kmh 30.12 in1020.0 mb 0.00 in0.0 mm 0.00 in0.0 mm 0.00 in0.0 mm
10:22 AM 61.5°F16.4°C 46.2°F7.9°C 57% 0.9 mph WSW1.4 kmh WSW 4.3 mph6.9 kmh 30.11 in1019.6 mb 0.00 in0.0 mm 0.00 in0.0 mm 0.00 in0.0 mm
10:27 AM 61.9°F16.6°C 46.0°F7.8°C 56% 0.4 mph W0.6 kmh W 3.1 mph5.0 kmh 30.11 in1019.6 mb 0.00 in0.0 mm 0.00 in0.0 mm 0.00 in0.0 mm
10:32 AM 62.2°F16.8°C 45.9°F7.7°C 55% 2.2 mph W3.5 kmh W 4.3 mph6.9 kmh 30.11 in1019.6 mb 0.00 in0.0 mm 0.00 in0.0 mm 0.00 in0.0 mm
10:37 AM 62.2°F16.8°C 45.0°F7.2°C 53% 3.1 mph NW5.0 kmh NW 6.3 mph10.1 kmh 30.12 in1020.0 mb 0.00 in0.0 mm 0.00 in0.0 mm 0.00 in0.0 mm
10:42 AM 62.1°F16.7°C 44.8°F7.1°C 53% 1.8 mph N2.9 kmh N 6.3 mph10.1 kmh 30.11 in1019.6 mb 0.00 in0.0 mm 0.00 in0.0 mm 0.00 in0.0 mm
10:47 AM 63.0°F17.2°C 45.5°F7.5°C 53% 1.1 mph N1.8 kmh N 4.3 mph6.9 kmh 30.11 in1019.6 mb 0.00 in0.0 mm 0.00 in0.0 mm 0.00 in0.0 mm
10:52 AM 63.3°F17.4°C 45.3°F7.4°C 52% 2.0 mph WNW3.2 kmh WNW 5.4 mph8.7 kmh 30.11 in1019.6 mb 0.00 in0.0 mm 0.00 in0.0 mm 0.00 in0.0 mm
10:57 AM 63.7°F17.6°C 45.7°F7.6°C 52% 3.4 mph SW5.5 kmh SW 6.3 mph10.1 kmh 30.11 in1019.6 mb 0.00 in0.0 mm 0.00 in0.0 mm 0.00 in0.0 mm
11:02 AM 64.4°F18.0°C 46.4°F8.0°C 52% 1.8 mph WSW2.9 kmh WSW 6.3 mph10.1 kmh 30.11 in1019.6 mb 0.00 in0.0 mm 0.00 in0.0 mm 0.00 in0.0 mm
11:07 AM 64.8°F18.2°C 46.2°F7.9°C 51% 3.6 mph NW5.8 kmh NW 6.3 mph10.1 kmh 30.11 in1019.6 mb 0.00 in0.0 mm 0.00 in0.0 mm 0.00 in0.0 mm
11:12 AM 64.8°F18.2°C 46.8°F8.2°C 52% 2.2 mph W3.5 kmh W 6.3 mph10.1 kmh 30.10 in1019.3 mb 0.00 in0.0 mm 0.00 in0.0 mm 0.00 in0.0 mm
11:17 AM 65.5°F18.6°C 47.5°F8.6°C 52% 1.8 mph NNW2.9 kmh NNW 6.3 mph10.1 kmh 30.10 in1019.3 mb 0.00 in0.0 mm 0.00 in0.0 mm 0.00 in0.0 mm
11:22 AM 66.6°F19.2°C 46.8°F8.2°C 49% 2.5 mph WNW4.0 kmh WNW 6.3 mph10.1 kmh 30.09 in1019.0 mb 0.00 in0.0 mm 0.00 in0.0 mm 0.00 in0.0 mm
11:27 AM 66.9°F19.4°C 47.1°F8.4°C 49% 2.5 mph NNW4.0 kmh NNW 6.3 mph10.1 kmh 30.09 in1019.0 mb 0.00 in0.0 mm 0.00 in0.0 mm 0.00 in0.0 mm
11:32 AM 66.9°F19.4°C 47.7°F8.7°C 50% 2.7 mph WNW4.3 kmh WNW 6.3 mph10.1 kmh 30.08 in1018.6 mb 0.00 in0.0 mm 0.00 in0.0 mm 0.00 in0.0 mm
11:37 AM 68.2°F20.1°C 48.9°F9.4°C 50% 1.1 mph NW1.8 kmh NW 5.4 mph8.7 kmh 30.08 in1018.6 mb 0.00 in0.0 mm 0.00 in0.0 mm 0.00 in0.0 mm
11:42 AM 68.4°F20.2°C 47.8°F8.8°C 48% 2.2 mph NW3.5 kmh NW 6.3 mph10.1 kmh 30.08 in1018.6 mb 0.00 in0.0 mm 0.00 in0.0 mm 0.00 in0.0 mm
11:47 AM 68.5°F20.3°C 48.6°F9.2°C 49% 1.6 mph SW2.6 kmh SW 4.3 mph6.9 kmh 30.08 in1018.6 mb 0.00 in0.0 mm 0.00 in0.0 mm 0.00 in0.0 mm
11:52 AM 68.7°F20.4°C 47.7°F8.7°C 47% 3.8 mph WNW6.1 kmh WNW 7.4 mph11.9 kmh 30.08 in1018.6 mb 0.00 in0.0 mm 0.00 in0.0 mm 0.00 in0.0 mm
11:57 AM 68.7°F20.4°C 47.7°F8.7°C 47% 4.3 mph WSW6.9 kmh WSW 8.5 mph13.7 kmh 30.08 in1018.6 mb 0.00 in0.0 mm 0.00 in0.0 mm 0.00 in0.0 mm
12:02 PM 68.7°F20.4°C 47.7°F8.7°C 47% 2.9 mph SW4.7 kmh SW 6.3 mph10.1 kmh 30.08 in1018.6 mb 0.00 in0.0 mm 0.00 in0.0 mm 0.00 in0.0 mm
12:07 PM 69.4°F20.8°C 47.8°F8.8°C 46% 0.9 mph W1.4 kmh W 5.4 mph8.7 kmh 30.06 in1017.9 mb 0.00 in0.0 mm 0.00 in0.0 mm 0.00 in0.0 mm
12:12 PM 70.0°F21.1°C 48.2°F9.0°C 46% 1.8 mph W2.9 kmh W 5.4 mph8.7 kmh 30.06 in1017.9 mb 0.00 in0.0 mm 0.00 in0.0 mm 0.00 in0.0 mm
12:17 PM 69.6°F20.9°C 49.1°F9.5°C 48% 0.7 mph SW1.1 kmh SW 4.3 mph6.9 kmh 30.06 in1017.9 mb 0.00 in0.0 mm 0.00 in0.0 mm 0.00 in0.0 mm
12:22 PM 69.4°F20.8°C 49.5°F9.7°C 49% 0.7 mph WNW1.1 kmh WNW 5.4 mph8.7 kmh 30.05 in1017.6 mb 0.00 in0.0 mm 0.00 in0.0 mm 0.00 in0.0 mm
12:27 PM 69.4°F20.8°C 47.1°F8.4°C 45% 1.3 mph NW2.1 kmh NW 6.3 mph10.1 kmh 30.05 in1017.6 mb 0.00 in0.0 mm 0.00 in0.0 mm 0.00 in0.0 mm
12:32 PM 69.1°F20.6°C 46.8°F8.2°C 45% 2.2 mph NW3.5 kmh NW 6.3 mph10.1 kmh 30.04 in1017.3 mb 0.00 in0.0 mm 0.00 in0.0 mm 0.00 in0.0 mm
12:37 PM 68.9°F20.5°C 47.3°F8.5°C 46% 3.1 mph WNW5.0 kmh WNW 6.3 mph10.1 kmh 30.04 in1017.3 mb 0.00 in0.0 mm 0.00 in0.0 mm 0.00 in0.0 mm
12:42 PM 68.7°F20.4°C 46.6°F8.1°C 45% 3.6 mph WSW5.8 kmh WSW 6.3 mph10.1 kmh 30.04 in1017.3 mb 0.00 in0.0 mm 0.00 in0.0 mm 0.00 in0.0 mm
12:47 PM 68.5°F20.3°C 46.4°F8.0°C 45% 3.4 mph WNW5.5 kmh WNW 7.4 mph11.9 kmh 30.04 in1017.3 mb 0.00 in0.0 mm 0.00 in0.0 mm 0.00 in0.0 mm
12:52 PM 68.5°F20.3°C 46.9°F8.3°C 46% 3.4 mph NW5.5 kmh NW 6.3 mph10.1 kmh 30.04 in1017.3 mb 0.00 in0.0 mm 0.00 in0.0 mm 0.00 in0.0 mm
12:57 PM 69.4°F20.8°C 47.8°F8.8°C 46% 1.8 mph SW2.9 kmh SW 5.4 mph8.7 kmh 30.04 in1017.3 mb 0.00 in0.0 mm 0.00 in0.0 mm 0.00 in0.0 mm
01:02 PM 69.8°F21.0°C 47.5°F8.6°C 45% 2.2 mph WNW3.5 kmh WNW 6.3 mph10.1 kmh 30.04 in1017.3 mb 0.00 in0.0 mm 0.00 in0.0 mm 0.00 in0.0 mm
01:07 PM 70.0°F21.1°C 47.7°F8.7°C 45% 3.8 mph NW6.1 kmh NW 6.3 mph10.1 kmh 30.03 in1016.9 mb 0.00 in0.0 mm 0.00 in0.0 mm 0.00 in0.0 mm
01:12 PM 70.0°F21.1°C 48.2°F9.0°C 46% 1.3 mph SW2.1 kmh SW 4.3 mph6.9 kmh 30.03 in1016.9 mb 0.00 in0.0 mm 0.00 in0.0 mm 0.00 in0.0 mm
01:17 PM 70.2°F21.2°C 47.8°F8.8°C 45% 1.8 mph SW2.9 kmh SW 7.4 mph11.9 kmh 30.03 in1016.9 mb 0.00 in0.0 mm 0.00 in0.0 mm 0.00 in0.0 mm
01:22 PM 70.3°F21.3°C 47.5°F8.6°C 44% 2.0 mph WNW3.2 kmh WNW 5.4 mph8.7 kmh 30.02 in1016.6 mb 0.00 in0.0 mm 0.00 in0.0 mm 0.00 in0.0 mm
01:27 PM 70.5°F21.4°C 46.9°F8.3°C 43% 2.2 mph WNW3.5 kmh WNW 5.4 mph8.7 kmh 30.02 in1016.6 mb 0.00 in0.0 mm 0.00 in0.0 mm 0.00 in0.0 mm
01:32 PM 70.2°F21.2°C 46.6°F8.1°C 43% 2.9 mph NW4.7 kmh NW 6.3 mph10.1 kmh 30.02 in1016.6 mb 0.00 in0.0 mm 0.00 in0.0 mm 0.00 in0.0 mm
01:37 PM 70.3°F21.3°C 45.0°F7.2°C 40% 3.6 mph NW5.8 kmh NW 5.4 mph8.7 kmh 30.02 in1016.6 mb 0.00 in0.0 mm 0.00 in0.0 mm 0.00 in0.0 mm
01:42 PM 71.1°F21.7°C 44.8°F7.1°C 39% 2.0 mph NE3.2 kmh NE 4.3 mph6.9 kmh 30.02 in1016.6 mb 0.00 in0.0 mm 0.00 in0.0 mm 0.00 in0.0 mm
01:47 PM 71.4°F21.9°C 43.7°F6.5°C 37% 2.0 mph NW3.2 kmh NW 4.3 mph6.9 kmh 30.01 in1016.3 mb 0.00 in0.0 mm 0.00 in0.0 mm 0.00 in0.0 mm
01:52 PM 71.6°F22.0°C 42.4°F5.8°C 35% 0.2 mph NW0.3 kmh NW 5.4 mph8.7 kmh 30.01 in1016.3 mb 0.00 in0.0 mm 0.00 in0.0 mm 0.00 in0.0 mm
01:57 PM 71.6°F22.0°C 43.2°F6.2°C 36% 1.1 mph N1.8 kmh N 6.3 mph10.1 kmh 30.01 in1016.3 mb 0.00 in0.0 mm 0.00 in0.0 mm 0.00 in0.0 mm
02:02 PM 71.2°F21.8°C 42.3°F5.7°C 35% 1.6 mph NNE2.6 kmh NNE 4.3 mph6.9 kmh 30.01 in1016.3 mb 0.00 in0.0 mm 0.00 in0.0 mm 0.00 in0.0 mm
02:07 PM 71.8°F22.1°C 46.2°F7.9°C 40% 0.9 mph W1.4 kmh W 4.3 mph6.9 kmh 30.01 in1016.3 mb 0.00 in0.0 mm 0.00 in0.0 mm 0.00 in0.0 mm
02:12 PM 72.0°F22.2°C 45.0°F7.2°C 38% 1.8 mph WNW2.9 kmh WNW 4.3 mph6.9 kmh 30.01 in1016.3 mb 0.00 in0.0 mm 0.00 in0.0 mm 0.00 in0.0 mm
02:17 PM 71.4°F21.9°C 45.1°F7.3°C 39% 1.3 mph W2.1 kmh W 3.1 mph5.0 kmh 30.01 in1016.3 mb 0.00 in0.0 mm 0.00 in0.0 mm 0.00 in0.0 mm
02:22 PM 71.1°F21.7°C 47.5°F8.6°C 43% 2.2 mph SW3.5 kmh SW 5.4 mph8.7 kmh 30.01 in1016.3 mb 0.00 in0.0 mm 0.00 in0.0 mm 0.00 in0.0 mm
02:27 PM 70.9°F21.6°C 47.8°F8.8°C 44% 2.9 mph W4.7 kmh W 6.3 mph10.1 kmh 30.01 in1016.3 mb 0.00 in0.0 mm 0.00 in0.0 mm 0.00 in0.0 mm
02:32 PM 70.7°F21.5°C 48.9°F9.4°C 46% 2.5 mph NW4.0 kmh NW 5.4 mph8.7 kmh 30.01 in1016.3 mb 0.00 in0.0 mm 0.00 in0.0 mm 0.00 in0.0 mm
02:37 PM 71.1°F21.7°C 49.8°F9.9°C 47% 4.3 mph SW6.9 kmh SW 7.4 mph11.9 kmh 30.01 in1016.3 mb 0.00 in0.0 mm 0.00 in0.0 mm 0.00 in0.0 mm
02:42 PM 70.5°F21.4°C 49.8°F9.9°C 48% 3.1 mph NW5.0 kmh NW 7.4 mph11.9 kmh 30.01 in1016.3 mb 0.00 in0.0 mm 0.00 in0.0 mm 0.00 in0.0 mm
02:47 PM 70.0°F21.1°C 49.5°F9.7°C 48% 2.0 mph WNW3.2 kmh WNW 5.4 mph8.7 kmh 30.01 in1016.3 mb 0.00 in0.0 mm 0.00 in0.0 mm 0.00 in0.0 mm
02:52 PM 69.6°F20.9°C 49.6°F9.8°C 49% 4.0 mph SW6.4 kmh SW 7.4 mph11.9 kmh 30.02 in1016.6 mb 0.00 in0.0 mm 0.00 in0.0 mm 0.00 in0.0 mm
02:57 PM 69.8°F21.0°C 50.4°F10.2°C 50% 3.1 mph SSW5.0 kmh SSW 8.5 mph13.7 kmh 30.01 in1016.3 mb 0.00 in0.0 mm 0.00 in0.0 mm 0.00 in0.0 mm
03:02 PM 69.6°F20.9°C 50.2°F10.1°C 50% 3.1 mph WNW5.0 kmh WNW 6.3 mph10.1 kmh 30.02 in1016.6 mb 0.00 in0.0 mm 0.00 in0.0 mm 0.00 in0.0 mm
03:07 PM 68.7°F20.4°C 50.4°F10.2°C 52% 4.0 mph W6.4 kmh W 8.5 mph13.7 kmh 30.02 in1016.6 mb 0.00 in0.0 mm 0.00 in0.0 mm 0.00 in0.0 mm
03:12 PM 68.4°F20.2°C 49.5°F9.7°C 51% 3.8 mph WNW6.1 kmh WNW 6.3 mph10.1 kmh 30.02 in1016.6 mb 0.00 in0.0 mm 0.00 in0.0 mm 0.00 in0.0 mm
03:17 PM 67.5°F19.7°C 50.7°F10.4°C 55% 4.0 mph W6.4 kmh W 6.3 mph10.1 kmh 30.02 in1016.6 mb 0.00 in0.0 mm 0.00 in0.0 mm 0.00 in0.0 mm
03:22 PM 66.9°F19.4°C 51.3°F10.7°C 57% 5.1 mph WNW8.2 kmh WNW 8.5 mph13.7 kmh 30.02 in1016.6 mb 0.00 in0.0 mm 0.00 in0.0 mm 0.00 in0.0 mm
03:27 PM 66.2°F19.0°C 52.0°F11.1°C 60% 4.5 mph NW7.2 kmh NW 8.5 mph13.7 kmh 30.02 in1016.6 mb 0.00 in0.0 mm 0.00 in0.0 mm 0.00 in0.0 mm
03:32 PM 65.8°F18.8°C 52.0°F11.1°C 61% 3.1 mph WSW5.0 kmh WSW 6.3 mph10.1 kmh 30.02 in1016.6 mb 0.00 in0.0 mm 0.00 in0.0 mm 0.00 in0.0 mm
03:37 PM 65.5°F18.6°C 52.2°F11.2°C 62% 1.8 mph WNW2.9 kmh WNW 6.3 mph10.1 kmh 30.03 in1016.9 mb 0.00 in0.0 mm 0.00 in0.0 mm 0.00 in0.0 mm
03:42 PM 65.1°F18.4°C 52.2°F11.2°C 63% 0.7 mph WSW1.1 kmh WSW 4.3 mph6.9 kmh 30.03 in1016.9 mb 0.00 in0.0 mm 0.00 in0.0 mm 0.00 in0.0 mm
03:47 PM 65.1°F18.4°C 52.2°F11.2°C 63% 1.3 mph W2.1 kmh W 5.4 mph8.7 kmh 30.03 in1016.9 mb 0.00 in0.0 mm 0.00 in0.0 mm 0.00 in0.0 mm
03:52 PM 64.9°F18.3°C 52.0°F11.1°C 63% 1.1 mph WSW1.8 kmh WSW 4.3 mph6.9 kmh 30.03 in1016.9 mb 0.00 in0.0 mm 0.00 in0.0 mm 0.00 in0.0 mm
03:57 PM 64.6°F18.1°C 52.2°F11.2°C 64% 2.7 mph WNW4.3 kmh WNW 5.4 mph8.7 kmh 30.03 in1016.9 mb 0.00 in0.0 mm 0.00 in0.0 mm 0.00 in0.0 mm
04:02 PM 64.2°F17.9°C 51.8°F11.0°C 64% 2.5 mph NW4.0 kmh NW 5.4 mph8.7 kmh 30.03 in1016.9 mb 0.00 in0.0 mm 0.00 in0.0 mm 0.00 in0.0 mm
04:07 PM 64.0°F17.8°C 52.0°F11.1°C 65% 2.0 mph WNW3.2 kmh WNW 4.3 mph6.9 kmh 30.04 in1017.3 mb 0.00 in0.0 mm 0.00 in0.0 mm 0.00 in0.0 mm
04:12 PM 63.7°F17.6°C 52.2°F11.2°C 66% 2.2 mph W3.5 kmh W 5.4 mph8.7 kmh 30.04 in1017.3 mb 0.00 in0.0 mm 0.00 in0.0 mm 0.00 in0.0 mm
04:17 PM 63.3°F17.4°C 52.2°F11.2°C 67% Calm Calm 3.1 mph5.0 kmh 30.04 in1017.3 mb 0.00 in0.0 mm 0.00 in0.0 mm 0.00 in0.0 mm
04:22 PM 63.3°F17.4°C 52.2°F11.2°C 67% 0.2 mph WNW0.3 kmh WNW 2.0 mph3.2 kmh 30.04 in1017.3 mb 0.00 in0.0 mm 0.00 in0.0 mm 0.00 in0.0 mm
04:27 PM 63.1°F17.3°C 52.0°F11.1°C 67% 1.3 mph W2.1 kmh W 4.3 mph6.9 kmh 30.04 in1017.3 mb 0.00 in0.0 mm 0.00 in0.0 mm 0.00 in0.0 mm
04:32 PM 63.0°F17.2°C 52.2°F11.2°C 68% 1.8 mph W2.9 kmh W 4.3 mph6.9 kmh 30.05 in1017.6 mb 0.00 in0.0 mm 0.00 in0.0 mm 0.00 in0.0 mm
04:37 PM 62.6°F17.0°C 52.0°F11.1°C 68% 1.8 mph WSW2.9 kmh WSW 3.1 mph5.0 kmh 30.05 in1017.6 mb 0.00 in0.0 mm 0.00 in0.0 mm 0.00 in0.0 mm
04:42 PM 62.4°F16.9°C 51.8°F11.0°C 68% 0.7 mph NW1.1 kmh NW 2.0 mph3.2 kmh 30.05 in1017.6 mb 0.00 in0.0 mm 0.00 in0.0 mm 0.00 in0.0 mm
04:47 PM 62.2°F16.8°C 52.0°F11.1°C 69% 1.1 mph WSW1.8 kmh WSW 3.1 mph5.0 kmh 30.05 in1017.6 mb 0.00 in0.0 mm 0.00 in0.0 mm 0.00 in0.0 mm
04:52 PM 62.1°F16.7°C 51.8°F11.0°C 69% Calm Calm 1.1 mph1.8 kmh 30.05 in1017.6 mb 0.00 in0.0 mm 0.00 in0.0 mm 0.00 in0.0 mm
04:57 PM 61.9°F16.6°C 52.3°F11.3°C 71% 0.4 mph WNW0.6 kmh WNW 1.1 mph1.8 kmh 30.05 in1017.6 mb 0.00 in0.0 mm 0.00 in0.0 mm 0.00 in0.0 mm
05:02 PM 61.5°F16.4°C 52.3°F11.3°C 72% 0.2 mph WNW0.3 kmh WNW 1.1 mph1.8 kmh 30.05 in1017.6 mb 0.00 in0.0 mm 0.00 in0.0 mm 0.00 in0.0 mm
05:07 PM 61.2°F16.2°C 52.5°F11.4°C 73% Calm Calm 2.0 mph3.2 kmh 30.06 in1017.9 mb 0.00 in0.0 mm 0.00 in0.0 mm 0.00 in0.0 mm
05:12 PM 61.0°F16.1°C 52.7°F11.5°C 74% 0.4 mph WNW0.6 kmh WNW 2.0 mph3.2 kmh 30.06 in1017.9 mb 0.00 in0.0 mm 0.00 in0.0 mm 0.00 in0.0 mm
05:17 PM 60.6°F15.9°C 52.3°F11.3°C 74% Calm Calm 1.1 mph1.8 kmh 30.06 in1017.9 mb 0.00 in0.0 mm 0.00 in0.0 mm 0.00 in0.0 mm
05:22 PM 60.3°F15.7°C 52.3°F11.3°C 75% Calm Calm -- 30.06 in1017.9 mb 0.00 in0.0 mm 0.00 in0.0 mm 0.00 in0.0 mm
05:27 PM 60.1°F15.6°C 52.5°F11.4°C 76% Calm Calm 1.1 mph1.8 kmh 30.06 in1017.9 mb 0.00 in0.0 mm 0.00 in0.0 mm 0.00 in0.0 mm
05:32 PM 59.7°F15.4°C 52.2°F11.2°C 76% Calm Calm 1.1 mph1.8 kmh 30.06 in1017.9 mb 0.00 in0.0 mm 0.00 in0.0 mm 0.00 in0.0 mm
05:37 PM 59.5°F15.3°C 52.7°F11.5°C 78% Calm Calm 2.0 mph3.2 kmh 30.06 in1017.9 mb 0.00 in0.0 mm 0.00 in0.0 mm 0.00 in0.0 mm
05:42 PM 59.4°F15.2°C 52.5°F11.4°C 78% Calm Calm -- 30.06 in1017.9 mb 0.00 in0.0 mm 0.00 in0.0 mm 0.00 in0.0 mm
05:47 PM 59.2°F15.1°C 52.7°F11.5°C 79% Calm Calm -- 30.06 in1017.9 mb 0.00 in0.0 mm 0.00 in0.0 mm 0.00 in0.0 mm
05:52 PM 59.0°F15.0°C 53.2°F11.8°C 81% Calm Calm -- 30.07 in1018.3 mb 0.00 in0.0 mm 0.00 in0.0 mm 0.00 in0.0 mm
05:57 PM 58.6°F14.8°C 52.5°F11.4°C 80% Calm Calm -- 30.07 in1018.3 mb 0.00 in0.0 mm 0.00 in0.0 mm 0.00 in0.0 mm
06:02 PM 58.3°F14.6°C 52.5°F11.4°C 81% Calm Calm -- 30.07 in1018.3 mb 0.00 in0.0 mm 0.00 in0.0 mm 0.00 in0.0 mm
06:07 PM 57.9°F14.4°C 52.7°F11.5°C 83% Calm Calm -- 30.06 in1017.9 mb 0.00 in0.0 mm 0.00 in0.0 mm 0.00 in0.0 mm
06:12 PM 57.7°F14.3°C 52.7°F11.5°C 83% Calm Calm -- 30.06 in1017.9 mb 0.00 in0.0 mm 0.00 in0.0 mm 0.00 in0.0 mm
06:17 PM 57.6°F14.2°C 52.7°F11.5°C 84% Calm Calm -- 30.06 in1017.9 mb 0.00 in0.0 mm 0.00 in0.0 mm 0.00 in0.0 mm
06:22 PM 57.4°F14.1°C 52.5°F11.4°C 84% Calm Calm -- 30.07 in1018.3 mb 0.00 in0.0 mm 0.00 in0.0 mm 0.00 in0.0 mm
06:27 PM 57.2°F14.0°C 52.7°F11.5°C 85% Calm Calm -- 30.07 in1018.3 mb 0.00 in0.0 mm 0.00 in0.0 mm 0.00 in0.0 mm
06:32 PM 57.0°F13.9°C 52.9°F11.6°C 86% Calm Calm -- 30.07 in1018.3 mb 0.00 in0.0 mm 0.00 in0.0 mm 0.00 in0.0 mm
06:37 PM 57.0°F13.9°C 52.9°F11.6°C 86% Calm Calm -- 30.07 in1018.3 mb 0.00 in0.0 mm 0.00 in0.0 mm 0.00 in0.0 mm
06:42 PM 57.0°F13.9°C 53.2°F11.8°C 87% Calm Calm -- 30.07 in1018.3 mb 0.00 in0.0 mm 0.00 in0.0 mm 0.00 in0.0 mm
06:47 PM 57.0°F13.9°C 53.2°F11.8°C 87% Calm Calm 1.1 mph1.8 kmh 30.07 in1018.3 mb 0.00 in0.0 mm 0.00 in0.0 mm 0.00 in0.0 mm
06:52 PM 56.8°F13.8°C 53.1°F11.7°C 87% Calm Calm -- 30.07 in1018.3 mb 0.00 in0.0 mm 0.00 in0.0 mm 0.00 in0.0 mm
06:57 PM 56.8°F13.8°C 53.1°F11.7°C 87% Calm Calm 1.1 mph1.8 kmh 30.07 in1018.3 mb 0.00 in0.0 mm 0.00 in0.0 mm 0.00 in0.0 mm
07:02 PM 56.7°F13.7°C 52.9°F11.6°C 87% Calm Calm -- 30.07 in1018.3 mb 0.00 in0.0 mm 0.00 in0.0 mm 0.00 in0.0 mm
07:07 PM 56.5°F13.6°C 52.9°F11.6°C 88% Calm Calm 1.1 mph1.8 kmh 30.08 in1018.6 mb 0.00 in0.0 mm 0.00 in0.0 mm 0.00 in0.0 mm
07:12 PM 56.3°F13.5°C 52.9°F11.6°C 88% Calm Calm -- 30.08 in1018.6 mb 0.00 in0.0 mm 0.00 in0.0 mm 0.00 in0.0 mm
07:17 PM 56.1°F13.4°C 52.7°F11.5°C 88% Calm Calm -- 30.08 in1018.6 mb 0.00 in0.0 mm 0.00 in0.0 mm 0.00 in0.0 mm
07:22 PM 55.9°F13.3°C 52.5°F11.4°C 88% Calm Calm -- 30.07 in1018.3 mb 0.00 in0.0 mm 0.00 in0.0 mm 0.00 in0.0 mm
07:27 PM 55.8°F13.2°C 52.3°F11.3°C 88% Calm Calm -- 30.08 in1018.6 mb 0.00 in0.0 mm 0.00 in0.0 mm 0.00 in0.0 mm
07:32 PM 55.8°F13.2°C 52.5°F11.4°C 89% Calm Calm 1.1 mph1.8 kmh 30.08 in1018.6 mb 0.00 in0.0 mm 0.00 in0.0 mm 0.00 in0.0 mm
07:37 PM 55.6°F13.1°C 52.3°F11.3°C 89% Calm Calm -- 30.09 in1019.0 mb 0.00 in0.0 mm 0.00 in0.0 mm 0.00 in0.0 mm
07:42 PM 55.8°F13.2°C 52.9°F11.6°C 90% 0.4 mph NW0.6 kmh NW 2.0 mph3.2 kmh 30.09 in1019.0 mb 0.00 in0.0 mm 0.00 in0.0 mm 0.00 in0.0 mm
07:47 PM 55.9°F13.3°C 53.1°F11.7°C 90% Calm Calm -- 30.08 in1018.6 mb 0.00 in0.0 mm 0.00 in0.0 mm 0.00 in0.0 mm
07:52 PM 56.1°F13.4°C 53.2°F11.8°C 90% Calm Calm -- 30.08 in1018.6 mb 0.00 in0.0 mm 0.00 in0.0 mm 0.00 in0.0 mm
07:57 PM 55.9°F13.3°C 53.1°F11.7°C 90% Calm Calm -- 30.07 in1018.3 mb 0.00 in0.0 mm 0.00 in0.0 mm 0.00 in0.0 mm
08:02 PM 55.8°F13.2°C 53.2°F11.8°C 91% Calm Calm -- 30.08 in1018.6 mb 0.00 in0.0 mm 0.00 in0.0 mm 0.00 in0.0 mm
08:07 PM 55.9°F13.3°C 53.4°F11.9°C 91% Calm Calm -- 30.08 in1018.6 mb 0.00 in0.0 mm 0.00 in0.0 mm 0.00 in0.0 mm
08:12 PM 55.8°F13.2°C 53.2°F11.8°C 91% Calm Calm -- 30.08 in1018.6 mb 0.00 in0.0 mm 0.00 in0.0 mm 0.00 in0.0 mm
08:17 PM 55.8°F13.2°C 53.2°F11.8°C 91% Calm Calm -- 30.08 in1018.6 mb 0.00 in0.0 mm 0.00 in0.0 mm 0.00 in0.0 mm
08:22 PM 55.8°F13.2°C 53.4°F11.9°C 92% Calm Calm -- 30.09 in1019.0 mb 0.00 in0.0 mm 0.00 in0.0 mm 0.00 in0.0 mm
08:27 PM 55.8°F13.2°C 53.4°F11.9°C 92% Calm Calm -- 30.09 in1019.0 mb 0.00 in0.0 mm 0.00 in0.0 mm 0.00 in0.0 mm
08:32 PM 55.8°F13.2°C 53.4°F11.9°C 92% Calm Calm -- 30.09 in1019.0 mb 0.00 in0.0 mm 0.00 in0.0 mm 0.00 in0.0 mm
08:37 PM 55.6°F13.1°C 53.2°F11.8°C 92% Calm Calm -- 30.09 in1019.0 mb 0.00 in0.0 mm 0.00 in0.0 mm 0.00 in0.0 mm
08:42 PM 55.6°F13.1°C 53.2°F11.8°C 92% Calm Calm -- 30.09 in1019.0 mb 0.00 in0.0 mm 0.00 in0.0 mm 0.00 in0.0 mm
08:47 PM 55.4°F13.0°C 53.1°F11.7°C 92% Calm Calm -- 30.09 in1019.0 mb 0.00 in0.0 mm 0.00 in0.0 mm 0.00 in0.0 mm
08:52 PM 55.4°F13.0°C 53.1°F11.7°C 92% Calm Calm -- 30.09 in1019.0 mb 0.00 in0.0 mm 0.00 in0.0 mm 0.00 in0.0 mm
08:57 PM 55.4°F13.0°C 53.1°F11.7°C 92% Calm Calm -- 30.09 in1019.0 mb 0.00 in0.0 mm 0.00 in0.0 mm 0.00 in0.0 mm
09:02 PM 55.2°F12.9°C 52.9°F11.6°C 92% Calm Calm -- 30.10 in1019.3 mb 0.00 in0.0 mm 0.00 in0.0 mm 0.00 in0.0 mm
09:07 PM 55.4°F13.0°C 53.4°F11.9°C 93% Calm Calm -- 30.10 in1019.3 mb 0.00 in0.0 mm 0.00 in0.0 mm 0.00 in0.0 mm
09:12 PM 55.2°F12.9°C 52.9°F11.6°C 92% Calm Calm -- 30.10 in1019.3 mb 0.00 in0.0 mm 0.00 in0.0 mm 0.00 in0.0 mm
09:17 PM 55.2°F12.9°C 53.2°F11.8°C 93% Calm Calm -- 30.10 in1019.3 mb 0.00 in0.0 mm 0.00 in0.0 mm 0.00 in0.0 mm
09:22 PM 55.0°F12.8°C 53.1°F11.7°C 93% Calm Calm -- 30.10 in1019.3 mb 0.00 in0.0 mm 0.00 in0.0 mm 0.00 in0.0 mm
09:27 PM 55.0°F12.8°C 53.1°F11.7°C 93% Calm Calm -- 30.10 in1019.3 mb 0.00 in0.0 mm 0.00 in0.0 mm 0.00 in0.0 mm
09:32 PM 54.9°F12.7°C 52.5°F11.4°C 92% Calm Calm -- 30.10 in1019.3 mb 0.00 in0.0 mm 0.00 in0.0 mm 0.00 in0.0 mm
09:37 PM 54.3°F12.4°C 52.0°F11.1°C 92% Calm Calm -- 30.10 in1019.3 mb 0.00 in0.0 mm 0.00 in0.0 mm 0.00 in0.0 mm
09:42 PM 54.3°F12.4°C 52.3°F11.3°C 93% Calm Calm -- 30.10 in1019.3 mb 0.00 in0.0 mm 0.00 in0.0 mm 0.00 in0.0 mm
09:47 PM 54.1°F12.3°C 51.8°F11.0°C 92% Calm Calm -- 30.10 in1019.3 mb 0.00 in0.0 mm 0.00 in0.0 mm 0.00 in0.0 mm
09:52 PM 54.3°F12.4°C 52.3°F11.3°C 93% Calm Calm -- 30.11 in1019.6 mb 0.00 in0.0 mm 0.00 in0.0 mm 0.00 in0.0 mm
09:57 PM 54.1°F12.3°C 52.2°F11.2°C 93% Calm Calm -- 30.11 in1019.6 mb 0.00 in0.0 mm 0.00 in0.0 mm 0.00 in0.0 mm
10:02 PM 54.1°F12.3°C 52.2°F11.2°C 93% Calm Calm -- 30.11 in1019.6 mb 0.00 in0.0 mm 0.00 in0.0 mm 0.00 in0.0 mm
10:07 PM 54.0°F12.2°C 51.6°F10.9°C 92% Calm Calm -- 30.11 in1019.6 mb 0.00 in0.0 mm 0.00 in0.0 mm 0.00 in0.0 mm
10:12 PM 54.0°F12.2°C 52.0°F11.1°C 93% Calm Calm -- 30.11 in1019.6 mb 0.00 in0.0 mm 0.00 in0.0 mm 0.00 in0.0 mm
10:17 PM 54.0°F12.2°C 52.0°F11.1°C 93% Calm Calm -- 30.11 in1019.6 mb 0.00 in0.0 mm 0.00 in0.0 mm 0.00 in0.0 mm
10:22 PM 54.0°F12.2°C 52.0°F11.1°C 93% Calm Calm -- 30.11 in1019.6 mb 0.00 in0.0 mm 0.00 in0.0 mm 0.00 in0.0 mm
10:27 PM 54.0°F12.2°C 52.0°F11.1°C 93% Calm Calm -- 30.10 in1019.3 mb 0.00 in0.0 mm 0.00 in0.0 mm 0.00 in0.0 mm
10:32 PM 54.0°F12.2°C 52.0°F11.1°C 93% Calm Calm -- 30.11 in1019.6 mb 0.00 in0.0 mm 0.00 in0.0 mm 0.00 in0.0 mm
10:37 PM 54.0°F12.2°C 52.0°F11.1°C 93% Calm Calm -- 30.10 in1019.3 mb 0.00 in0.0 mm 0.00 in0.0 mm 0.00 in0.0 mm
10:42 PM 54.0°F12.2°C 52.0°F11.1°C 93% Calm Calm -- 30.11 in1019.6 mb 0.00 in0.0 mm 0.00 in0.0 mm 0.00 in0.0 mm
10:47 PM 54.1°F12.3°C 52.2°F11.2°C 93% Calm Calm -- 30.10 in1019.3 mb 0.00 in0.0 mm 0.00 in0.0 mm 0.00 in0.0 mm
10:52 PM 54.1°F12.3°C 52.2°F11.2°C 93% Calm Calm -- 30.10 in1019.3 mb 0.00 in0.0 mm 0.00 in0.0 mm 0.00 in0.0 mm
10:57 PM 54.1°F12.3°C 52.2°F11.2°C 93% Calm Calm -- 30.11 in1019.6 mb 0.00 in0.0 mm 0.00 in0.0 mm 0.00 in0.0 mm
11:02 PM 54.1°F12.3°C 52.2°F11.2°C 93% Calm Calm -- 30.11 in1019.6 mb 0.00 in0.0 mm 0.00 in0.0 mm 0.00 in0.0 mm
11:07 PM 53.8°F12.1°C 51.8°F11.0°C 93% Calm Calm -- 30.10 in1019.3 mb 0.00 in0.0 mm 0.00 in0.0 mm 0.00 in0.0 mm
11:12 PM 53.6°F12.0°C 51.6°F10.9°C 93% Calm Calm -- 30.10 in1019.3 mb 0.00 in0.0 mm 0.00 in0.0 mm 0.00 in0.0 mm
11:17 PM 53.4°F11.9°C 51.4°F10.8°C 93% Calm Calm -- 30.10 in1019.3 mb 0.00 in0.0 mm 0.00 in0.0 mm 0.00 in0.0 mm
11:22 PM 53.6°F12.0°C 51.6°F10.9°C 93% Calm Calm -- 30.10 in1019.3 mb 0.00 in0.0 mm 0.00 in0.0 mm 0.00 in0.0 mm
11:27 PM 53.6°F12.0°C 51.6°F10.9°C 93% Calm Calm -- 30.10 in1019.3 mb 0.00 in0.0 mm 0.00 in0.0 mm 0.00 in0.0 mm
11:32 PM 53.6°F12.0°C 51.6°F10.9°C 93% Calm Calm -- 30.10 in1019.3 mb 0.00 in0.0 mm 0.00 in0.0 mm 0.00 in0.0 mm
11:37 PM 53.6°F12.0°C 51.6°F10.9°C 93% Calm Calm -- 30.10 in1019.3 mb 0.00 in0.0 mm 0.00 in0.0 mm 0.00 in0.0 mm
11:42 PM 53.4°F11.9°C 51.4°F10.8°C 93% Calm Calm -- 30.10 in1019.3 mb 0.00 in0.0 mm 0.00 in0.0 mm 0.00 in0.0 mm
11:47 PM 53.2°F11.8°C 51.3°F10.7°C 93% Calm Calm -- 30.10 in1019.3 mb 0.00 in0.0 mm 0.00 in0.0 mm 0.00 in0.0 mm
11:52 PM 53.2°F11.8°C 51.3°F10.7°C 93% Calm Calm -- 30.09 in1019.0 mb 0.00 in0.0 mm 0.00 in0.0 mm 0.00 in0.0 mm
11:57 PM 53.4°F11.9°C 51.8°F11.0°C 94% Calm Calm -- 30.09 in1019.0 mb 0.00 in0.0 mm 0.00 in0.0 mm 0.00 in0.0 mm